createdAt,value
2023-12-05T00:01:12.108Z,5.20
2023-12-05T00:03:40.789Z,5.20
2023-12-05T00:06:11.823Z,5.30
2023-12-05T00:08:40.418Z,5.20
2023-12-05T00:11:09.819Z,5.20
2023-12-05T00:13:39.367Z,5.30
2023-12-05T00:16:09.727Z,5.20
2023-12-05T00:18:39.228Z,5.30
2023-12-05T00:21:08.364Z,5.20
2023-12-05T00:23:36.507Z,5.20
2023-12-05T00:26:04.853Z,5.20
2023-12-05T00:28:33.093Z,5.20
2023-12-05T00:31:02.732Z,5.20
2023-12-05T00:33:31.033Z,5.20
2023-12-05T00:35:59.249Z,5.20
2023-12-05T00:38:27.885Z,5.20
2023-12-05T00:40:57.911Z,5.20
2023-12-05T00:43:26.015Z,5.20
2023-12-05T00:45:54.173Z,5.20
2023-12-05T00:48:24.568Z,5.10
2023-12-05T00:50:52.757Z,5.20
2023-12-05T00:53:20.946Z,5.10
2023-12-05T00:55:49.089Z,5.20
2023-12-05T00:58:17.467Z,5.20
2023-12-05T01:00:45.719Z,5.10
2023-12-05T01:03:14.911Z,5.10
2023-12-05T01:05:45.948Z,5.10
2023-12-05T01:08:14.273Z,5.10
2023-12-05T01:10:42.605Z,5.20
2023-12-05T01:13:10.803Z,5.20
2023-12-05T01:15:39.110Z,5.10
2023-12-05T01:18:07.417Z,5.20
2023-12-05T01:20:35.787Z,5.10
2023-12-05T01:23:05.413Z,5.10
2023-12-05T01:25:33.684Z,5.10
2023-12-05T01:28:01.936Z,5.10
2023-12-05T01:30:30.108Z,5.10
2023-12-05T01:32:58.392Z,5.10
2023-12-05T01:35:27.260Z,5.10
2023-12-05T01:37:55.402Z,5.20
2023-12-05T01:40:25.033Z,5.20
2023-12-05T01:42:53.329Z,5.20
2023-12-05T01:45:21.685Z,5.20
2023-12-05T01:47:51.064Z,5.20
2023-12-05T01:50:22.691Z,5.20
2023-12-05T01:52:55.364Z,5.20
2023-12-05T01:55:25.856Z,5.20
2023-12-05T01:57:55.138Z,5.20
2023-12-05T02:00:25.158Z,5.20
2023-12-05T02:02:53.875Z,5.20
2023-12-05T02:05:22.365Z,5.20
2023-12-05T02:07:50.630Z,5.20
2023-12-05T02:10:19.028Z,5.20
2023-12-05T02:12:48.862Z,5.10
2023-12-05T02:15:17.343Z,5.20
2023-12-05T02:17:55.229Z,5.20
2023-12-05T02:20:34.397Z,5.20
2023-12-05T02:23:36.234Z,5.20
2023-12-05T02:26:11.659Z,5.20
2023-12-05T02:28:41.754Z,5.20
2023-12-05T02:31:09.951Z,5.20
2023-12-05T02:33:39.736Z,5.20
2023-12-05T02:36:16.857Z,5.20
2023-12-05T02:38:54.826Z,5.20
2023-12-05T02:41:27.140Z,5.20
2023-12-05T02:44:01.412Z,5.20
2023-12-05T02:46:29.847Z,5.20
2023-12-05T02:48:59.541Z,5.20
2023-12-05T02:51:27.836Z,5.20
2023-12-05T02:53:56.771Z,5.20
2023-12-05T02:56:26.009Z,5.20
2023-12-05T02:58:54.201Z,5.20
2023-12-05T03:01:23.810Z,5.20
2023-12-05T03:03:52.110Z,5.20
2023-12-05T03:06:20.719Z,5.20
2023-12-05T03:08:48.962Z,5.20
2023-12-05T03:11:17.083Z,5.20
2023-12-05T03:13:45.267Z,5.20
2023-12-05T03:16:13.544Z,5.20
2023-12-05T03:18:43.265Z,5.20
2023-12-05T03:21:11.901Z,5.20
2023-12-05T03:23:40.382Z,5.20
2023-12-05T03:26:09.128Z,5.20
2023-12-05T03:28:37.508Z,5.30
2023-12-05T03:31:06.149Z,5.20
2023-12-05T03:33:34.282Z,5.30
2023-12-05T03:36:03.866Z,5.20
2023-12-05T03:38:32.022Z,5.20
2023-12-05T03:41:00.173Z,5.20
2023-12-05T03:43:28.406Z,5.20
2023-12-05T03:45:56.592Z,5.20
2023-12-05T03:48:24.894Z,5.20
2023-12-05T03:50:53.112Z,5.20
2023-12-05T03:53:22.797Z,5.20
2023-12-05T03:55:50.962Z,5.10
2023-12-05T03:58:19.291Z,5.10
2023-12-05T04:00:47.538Z,5.10
2023-12-05T04:03:16.197Z,5.10
2023-12-05T04:05:44.646Z,5.10
2023-12-05T04:08:12.841Z,5.10
2023-12-05T04:10:42.347Z,5.10
2023-12-05T04:13:10.597Z,5.10
2023-12-05T04:15:38.806Z,5.20
2023-12-05T04:18:07.251Z,5.10
2023-12-05T04:20:35.585Z,5.10
2023-12-05T04:23:03.987Z,5.10
2023-12-05T04:25:32.206Z,5.10
2023-12-05T04:28:01.799Z,5.10
2023-12-05T04:30:30.057Z,5.10
2023-12-05T04:32:58.292Z,5.10
2023-12-05T04:35:26.501Z,5.10
2023-12-05T04:37:54.627Z,5.10
2023-12-05T04:40:22.781Z,5.10
2023-12-05T04:42:51.892Z,5.10
2023-12-05T04:45:21.553Z,5.10
2023-12-05T04:47:49.685Z,5.00
2023-12-05T04:50:17.943Z,5.00
2023-12-05T04:52:46.078Z,5.00
2023-12-05T04:55:14.262Z,5.00
2023-12-05T04:57:42.459Z,5.00
2023-12-05T05:00:14.075Z,5.00
2023-12-05T05:02:43.718Z,5.00
2023-12-05T05:05:15.136Z,5.00
2023-12-05T05:07:43.476Z,5.00
2023-12-05T05:10:11.850Z,5.00
2023-12-05T05:12:40.112Z,4.90
2023-12-05T05:15:10.252Z,4.90
2023-12-05T05:17:38.875Z,4.90
2023-12-05T05:20:09.999Z,4.80
2023-12-05T05:22:38.221Z,4.80
2023-12-05T05:25:07.392Z,4.80
2023-12-05T05:27:35.814Z,4.80
2023-12-05T05:30:04.284Z,4.80
2023-12-05T05:32:32.590Z,4.80
2023-12-05T05:35:00.951Z,4.80
2023-12-05T05:37:30.496Z,4.70
2023-12-05T05:39:59.215Z,4.70
2023-12-05T05:42:27.448Z,4.70
2023-12-05T05:44:55.741Z,4.70
2023-12-05T05:47:23.922Z,4.70
2023-12-05T05:49:52.224Z,4.60
2023-12-05T05:52:20.367Z,4.60
2023-12-05T05:54:51.839Z,4.60
2023-12-05T05:57:20.095Z,4.60
2023-12-05T05:59:48.386Z,4.60
2023-12-05T06:02:17.337Z,4.60
2023-12-05T06:04:45.772Z,4.60
2023-12-05T06:07:14.940Z,4.60
2023-12-05T06:09:44.168Z,4.60
2023-12-05T06:12:13.889Z,4.60
2023-12-05T06:14:42.099Z,4.60
2023-12-05T06:17:10.183Z,4.60
2023-12-05T06:19:38.389Z,4.60
2023-12-05T06:22:06.707Z,4.60
2023-12-05T06:24:34.885Z,4.60
2023-12-05T06:27:03.080Z,4.60
2023-12-05T06:29:33.205Z,4.60
2023-12-05T06:32:01.469Z,4.60
2023-12-05T06:34:29.937Z,4.60
2023-12-05T06:37:01.367Z,4.60
2023-12-05T06:39:29.908Z,4.60
2023-12-05T06:41:58.250Z,4.60
2023-12-05T06:44:26.429Z,4.60
2023-12-05T06:46:56.551Z,4.60
2023-12-05T06:49:24.753Z,4.50
2023-12-05T06:51:58.223Z,4.50
2023-12-05T06:54:26.609Z,4.50
2023-12-05T06:56:54.843Z,4.50
2023-12-05T06:59:23.081Z,4.50
2023-12-05T07:01:51.235Z,4.50
2023-12-05T07:04:22.183Z,4.50
2023-12-05T07:06:50.575Z,4.40
2023-12-05T07:09:20.080Z,4.40
2023-12-05T07:11:48.443Z,4.40
2023-12-05T07:14:16.953Z,4.40
2023-12-05T07:16:46.620Z,4.40
2023-12-05T07:19:14.852Z,4.40
2023-12-05T07:21:44.519Z,4.40
2023-12-05T07:24:12.802Z,4.40
2023-12-05T07:26:41.347Z,4.40
2023-12-05T07:29:09.956Z,4.30
2023-12-05T07:31:38.357Z,4.30
2023-12-05T07:34:06.660Z,4.30
2023-12-05T07:36:35.285Z,4.30
2023-12-05T07:39:04.950Z,4.30
2023-12-05T07:41:33.116Z,4.30
2023-12-05T07:44:01.226Z,4.30
2023-12-05T07:46:29.551Z,4.30
2023-12-05T07:48:57.767Z,4.30
2023-12-05T07:51:26.428Z,4.30
2023-12-05T07:53:55.879Z,4.30
2023-12-05T07:56:25.471Z,4.20
2023-12-05T07:58:53.610Z,4.20
2023-12-05T08:01:24.336Z,4.20
2023-12-05T08:03:52.730Z,4.20
2023-12-05T08:06:21.143Z,4.20
2023-12-05T08:08:49.377Z,4.20
2023-12-05T08:11:17.619Z,4.20
2023-12-05T08:13:48.762Z,4.20
2023-12-05T08:16:17.209Z,4.30
2023-12-05T08:18:47.433Z,4.20
2023-12-05T08:21:15.711Z,4.20
2023-12-05T08:23:43.891Z,4.30
2023-12-05T08:26:14.564Z,4.30
2023-12-05T08:28:42.843Z,4.30
2023-12-05T08:31:12.482Z,4.30
2023-12-05T08:33:40.987Z,4.30
2023-12-05T08:36:10.007Z,4.30
2023-12-05T08:38:38.236Z,4.40
2023-12-05T08:41:06.927Z,4.40
2023-12-05T08:43:35.174Z,4.40
2023-12-05T08:46:04.450Z,4.40
2023-12-05T08:48:34.325Z,4.40
2023-12-05T08:51:02.640Z,4.40
2023-12-05T08:53:30.873Z,4.40
2023-12-05T08:55:59.124Z,4.50
2023-12-05T08:58:27.348Z,4.40
2023-12-05T09:00:56.200Z,4.40
2023-12-05T09:03:24.564Z,4.40
2023-12-05T09:05:54.627Z,4.40
2023-12-05T09:08:23.213Z,4.40
2023-12-05T09:10:51.552Z,4.40
2023-12-05T09:13:19.737Z,4.40
2023-12-05T09:15:47.923Z,4.40
2023-12-05T09:18:16.183Z,4.40
2023-12-05T09:20:44.477Z,4.40
2023-12-05T09:23:14.041Z,4.50
2023-12-05T09:25:42.460Z,4.40
2023-12-05T09:28:10.998Z,4.40
2023-12-05T09:30:39.457Z,4.40
2023-12-05T09:33:08.169Z,4.50
2023-12-05T09:35:36.410Z,4.40
2023-12-05T09:38:05.445Z,4.40
2023-12-05T09:40:36.789Z,4.40
2023-12-05T09:43:06.824Z,4.40
2023-12-05T09:45:40.821Z,4.40
2023-12-05T09:48:11.297Z,4.40
2023-12-05T09:50:40.029Z,4.40
2023-12-05T09:53:11.236Z,4.40
2023-12-05T09:55:41.485Z,4.50
2023-12-05T09:58:13.501Z,4.50
2023-12-05T10:00:42.817Z,4.50
2023-12-05T10:03:12.110Z,4.50
2023-12-05T10:05:43.659Z,4.50
2023-12-05T10:08:13.562Z,4.50
2023-12-05T10:10:47.925Z,4.50
2023-12-05T10:13:19.740Z,4.50
2023-12-05T10:15:48.352Z,4.50
2023-12-05T10:18:18.391Z,4.50
2023-12-05T10:20:46.860Z,4.50
2023-12-05T10:23:15.475Z,4.50
2023-12-05T10:25:45.781Z,4.50
2023-12-05T10:28:14.042Z,4.50
2023-12-05T10:30:45.518Z,4.50
2023-12-05T10:33:16.244Z,4.50
2023-12-05T10:35:45.656Z,4.50
2023-12-05T10:38:15.530Z,4.50
2023-12-05T10:40:55.357Z,4.50
2023-12-05T10:43:25.433Z,4.50
2023-12-05T10:45:54.459Z,4.50
2023-12-05T10:48:24.649Z,4.50
2023-12-05T10:50:53.585Z,4.50
2023-12-05T10:53:22.015Z,4.50
2023-12-05T10:55:50.657Z,4.50
2023-12-05T10:58:21.452Z,4.60
2023-12-05T11:00:50.569Z,4.60
2023-12-05T11:03:19.039Z,4.60
2023-12-05T11:05:47.661Z,4.60
2023-12-05T11:08:16.375Z,4.60
2023-12-05T11:10:44.853Z,4.60
2023-12-05T11:13:14.638Z,4.60
2023-12-05T11:15:46.382Z,4.60
2023-12-05T11:18:23.217Z,4.60
2023-12-05T11:21:00.904Z,4.60
2023-12-05T11:23:50.070Z,4.60
2023-12-05T11:26:45.253Z,4.60
2023-12-05T11:29:30.827Z,4.60
2023-12-05T11:32:10.846Z,4.60
2023-12-05T11:34:57.243Z,4.60
2023-12-05T11:37:37.772Z,4.60
2023-12-05T11:40:06.954Z,4.70
2023-12-05T11:42:35.977Z,4.70
2023-12-05T11:45:22.770Z,4.80
2023-12-05T11:47:52.829Z,4.70
2023-12-05T11:50:21.600Z,4.70
2023-12-05T11:52:51.354Z,4.70
2023-12-05T11:55:20.158Z,4.80
2023-12-05T11:57:48.396Z,4.80
2023-12-05T12:00:17.317Z,4.80
2023-12-05T12:02:49.841Z,4.80
2023-12-05T12:05:22.590Z,4.80
2023-12-05T12:07:57.464Z,4.70
2023-12-05T12:10:28.075Z,4.80
2023-12-05T12:12:57.676Z,4.70
2023-12-05T12:15:26.691Z,4.80
2023-12-05T12:17:56.490Z,4.70
2023-12-05T12:20:27.011Z,4.70
2023-12-05T12:22:56.128Z,4.70
2023-12-05T12:25:25.333Z,4.70
2023-12-05T12:27:53.605Z,4.70
2023-12-05T12:30:22.044Z,4.70
2023-12-05T12:32:58.556Z,4.70
2023-12-05T12:35:30.846Z,4.70
2023-12-05T12:37:59.293Z,4.70
2023-12-05T12:40:28.139Z,4.70
2023-12-05T12:42:57.384Z,4.80
2023-12-05T12:45:27.998Z,4.80
2023-12-05T12:47:57.370Z,4.70
2023-12-05T12:50:25.907Z,4.80
2023-12-05T12:52:55.996Z,4.80
2023-12-05T12:55:24.925Z,4.70
2023-12-05T12:57:54.360Z,4.70
2023-12-05T13:00:32.163Z,4.70
2023-12-05T13:03:05.746Z,4.70
2023-12-05T13:05:35.249Z,4.70
2023-12-05T13:08:09.780Z,4.70
2023-12-05T13:10:39.242Z,4.70
2023-12-05T13:13:07.902Z,4.70
2023-12-05T13:15:37.941Z,4.70
2023-12-05T13:18:09.188Z,4.70
2023-12-05T13:20:51.617Z,4.70
2023-12-05T13:23:21.290Z,4.70
2023-12-05T13:25:49.654Z,4.70
2023-12-05T13:28:19.553Z,4.70
2023-12-05T13:30:48.213Z,4.70
2023-12-05T13:33:18.340Z,4.80
2023-12-05T13:35:46.602Z,4.70
2023-12-05T13:38:14.832Z,4.80
2023-12-05T13:40:44.520Z,4.80
2023-12-05T13:43:12.759Z,4.80
2023-12-05T13:45:41.278Z,4.80
2023-12-05T13:48:09.481Z,4.80
2023-12-05T13:50:37.661Z,4.70
2023-12-05T13:53:06.678Z,4.80
2023-12-05T13:55:34.987Z,4.70
2023-12-05T13:58:04.662Z,4.70
2023-12-05T14:00:33.810Z,4.80
2023-12-05T14:03:03.256Z,4.80
2023-12-05T14:05:31.861Z,4.80
2023-12-05T14:08:02.532Z,4.80
2023-12-05T14:10:30.763Z,4.80
2023-12-05T14:12:58.962Z,4.80
2023-12-05T14:15:29.742Z,4.80
2023-12-05T14:17:58.445Z,4.80
2023-12-05T14:20:26.778Z,4.80
2023-12-05T14:22:55.013Z,4.90
2023-12-05T14:25:23.703Z,4.90
2023-12-05T14:27:52.121Z,4.80
2023-12-05T14:30:20.334Z,4.90
2023-12-05T14:32:50.006Z,4.90
2023-12-05T14:35:19.950Z,4.90
2023-12-05T14:37:48.808Z,4.90
2023-12-05T14:40:17.056Z,4.90
2023-12-05T14:42:45.629Z,4.90
2023-12-05T14:45:14.009Z,4.90
2023-12-05T14:47:44.817Z,4.90
2023-12-05T14:50:14.712Z,4.90
2023-12-05T14:52:42.885Z,4.90
2023-12-05T14:55:11.206Z,4.90
2023-12-05T14:57:39.658Z,4.90
2023-12-05T15:00:11.044Z,4.90
2023-12-05T15:02:42.339Z,4.90
2023-12-05T15:05:11.609Z,4.90
2023-12-05T15:07:41.384Z,4.90
2023-12-05T15:10:10.424Z,4.90
2023-12-05T15:12:38.836Z,4.90
2023-12-05T15:15:08.970Z,4.90
2023-12-05T15:17:37.426Z,4.90
2023-12-05T15:20:19.779Z,4.90
2023-12-05T15:22:53.180Z,4.90
2023-12-05T15:25:21.926Z,4.90
2023-12-05T15:27:50.641Z,4.90
2023-12-05T15:30:19.791Z,4.90
2023-12-05T15:32:52.857Z,4.90
2023-12-05T15:35:22.978Z,4.80
2023-12-05T15:37:53.194Z,4.80
2023-12-05T15:40:21.435Z,4.80
2023-12-05T15:42:50.380Z,4.80
2023-12-05T15:45:19.161Z,4.80
2023-12-05T15:47:47.598Z,4.80
2023-12-05T15:50:18.496Z,4.80
2023-12-05T15:52:48.265Z,4.80
2023-12-05T15:55:17.985Z,4.80
2023-12-05T15:57:46.846Z,4.80
2023-12-05T16:00:15.838Z,4.90
2023-12-05T16:02:45.600Z,4.80
2023-12-05T16:05:14.217Z,4.80
2023-12-05T16:07:42.477Z,4.80
2023-12-05T16:10:11.799Z,4.80
2023-12-05T16:12:41.463Z,4.80
2023-12-05T16:15:10.722Z,4.80
2023-12-05T16:17:38.963Z,4.80
2023-12-05T16:20:07.980Z,4.80
2023-12-05T16:22:36.277Z,4.80
2023-12-05T16:25:06.120Z,4.80
2023-12-05T16:27:34.612Z,4.80
2023-12-05T16:30:06.893Z,4.80
2023-12-05T16:32:35.710Z,4.80
2023-12-05T16:35:04.267Z,4.80
2023-12-05T16:37:32.680Z,4.90
2023-12-05T16:40:01.327Z,4.80
2023-12-05T16:42:29.516Z,4.80
2023-12-05T16:44:57.836Z,4.80
2023-12-05T16:47:27.414Z,4.80
2023-12-05T16:49:55.732Z,4.80
2023-12-05T16:52:24.298Z,4.80
2023-12-05T16:54:52.665Z,4.90
2023-12-05T16:57:22.131Z,4.90
2023-12-05T16:59:51.566Z,4.90
2023-12-05T17:02:19.807Z,4.90
2023-12-05T17:04:49.548Z,4.90
2023-12-05T17:07:18.153Z,4.90
2023-12-05T17:09:46.733Z,4.80
2023-12-05T17:12:15.776Z,4.90
2023-12-05T17:14:44.494Z,4.90
2023-12-05T17:17:13.942Z,4.90
2023-12-05T17:19:42.706Z,4.90
2023-12-05T17:22:12.556Z,4.80
2023-12-05T17:24:42.277Z,4.90
2023-12-05T17:27:14.095Z,4.80
2023-12-05T17:29:42.313Z,4.90
2023-12-05T17:32:10.628Z,4.90
2023-12-05T17:34:38.784Z,4.80
2023-12-05T17:37:07.076Z,4.90
2023-12-05T17:39:40.452Z,4.90
2023-12-05T17:42:08.670Z,4.90
2023-12-05T17:44:36.888Z,4.90
2023-12-05T17:47:05.534Z,4.90
2023-12-05T17:49:33.766Z,4.90
2023-12-05T17:52:01.980Z,4.90
2023-12-05T17:54:30.443Z,4.90
2023-12-05T17:57:00.072Z,4.90
2023-12-05T17:59:28.287Z,4.90
2023-12-05T18:01:56.496Z,4.90
2023-12-05T18:04:24.888Z,4.90
2023-12-05T18:06:53.956Z,4.90
2023-12-05T18:09:44.181Z,4.80
2023-12-05T18:12:13.931Z,4.90
2023-12-05T18:14:42.492Z,4.90
2023-12-05T18:17:10.736Z,4.90
2023-12-05T18:19:44.912Z,4.90
2023-12-05T18:22:16.750Z,4.80
2023-12-05T18:24:45.004Z,4.80
2023-12-05T18:27:14.714Z,4.80
2023-12-05T18:29:45.189Z,4.80
2023-12-05T18:32:14.573Z,4.70
2023-12-05T18:34:43.088Z,4.70
2023-12-05T18:37:11.438Z,4.70
2023-12-05T18:39:39.634Z,4.70
2023-12-05T18:42:10.616Z,4.70
2023-12-05T18:44:40.775Z,4.70
2023-12-05T18:47:09.359Z,4.70
2023-12-05T18:49:37.620Z,4.70
2023-12-05T18:52:06.605Z,4.60
2023-12-05T18:54:34.809Z,4.60
2023-12-05T18:57:02.956Z,4.60
2023-12-05T18:59:31.146Z,4.60
2023-12-05T19:02:00.695Z,4.60
2023-12-05T19:04:28.916Z,4.60
2023-12-05T19:06:57.468Z,4.50
2023-12-05T19:09:25.698Z,4.50
2023-12-05T19:11:54.565Z,4.50
2023-12-05T19:14:22.852Z,4.50
2023-12-05T19:16:51.525Z,4.40
2023-12-05T19:19:21.239Z,4.30
2023-12-05T19:21:49.664Z,4.30
2023-12-05T19:24:17.895Z,4.20
2023-12-05T19:26:46.522Z,4.10
2023-12-05T19:29:18.065Z,4.10
2023-12-05T19:31:46.181Z,4.00
2023-12-05T19:34:14.621Z,4.00
2023-12-05T19:36:44.219Z,3.90
2023-12-05T19:39:15.734Z,4.00
2023-12-05T19:41:43.966Z,3.90
2023-12-05T19:44:12.887Z,3.90
2023-12-05T19:46:41.505Z,4.00
2023-12-05T19:49:09.969Z,4.00
2023-12-05T19:51:38.268Z,4.00
2023-12-05T19:54:07.875Z,4.00
2023-12-05T19:56:36.510Z,4.10
2023-12-05T19:59:05.177Z,4.10
2023-12-05T20:01:33.658Z,4.10
2023-12-05T20:04:02.036Z,4.10
2023-12-05T20:06:30.400Z,4.10
2023-12-05T20:08:58.585Z,4.10
2023-12-05T20:11:28.203Z,4.10
2023-12-05T20:13:56.426Z,4.10
2023-12-05T20:16:24.647Z,4.10
2023-12-05T20:18:52.922Z,4.10
2023-12-05T20:21:21.190Z,4.10
2023-12-05T20:23:49.412Z,4.10
2023-12-05T20:26:17.661Z,4.10
2023-12-05T20:28:48.791Z,4.20
2023-12-05T20:31:17.069Z,4.20
2023-12-05T20:33:45.450Z,4.20
2023-12-05T20:36:16.373Z,4.20
2023-12-05T20:38:49.970Z,4.20
2023-12-05T20:41:18.433Z,4.20
2023-12-05T20:43:49.105Z,4.20
2023-12-05T20:46:17.843Z,4.20
2023-12-05T20:48:46.456Z,4.20
2023-12-05T20:51:14.886Z,4.20
2023-12-05T20:53:43.175Z,4.20
2023-12-05T20:56:11.980Z,4.20
2023-12-05T20:58:40.404Z,4.20
2023-12-05T21:01:10.059Z,4.20
2023-12-05T21:03:38.374Z,4.20
2023-12-05T21:06:08.584Z,4.20
2023-12-05T21:09:09.477Z,4.20
2023-12-05T21:11:25.503Z,4.20
2023-12-05T21:13:54.838Z,4.20
2023-12-05T21:16:24.450Z,4.20
2023-12-05T21:18:52.889Z,4.20
2023-12-05T21:21:22.546Z,4.20
2023-12-05T21:23:51.003Z,4.30
2023-12-05T21:26:19.286Z,4.20
2023-12-05T21:28:48.026Z,4.30
2023-12-05T21:31:16.397Z,4.30
2023-12-05T21:33:46.246Z,4.30
2023-12-05T21:36:22.690Z,4.30
2023-12-05T21:38:54.319Z,4.30
2023-12-05T21:41:23.780Z,4.30
2023-12-05T21:43:53.079Z,4.30
2023-12-05T21:46:25.538Z,4.30
2023-12-05T21:48:55.288Z,4.30
2023-12-05T21:51:23.632Z,4.30
2023-12-05T21:53:52.170Z,4.30
2023-12-05T21:56:20.377Z,4.30
2023-12-05T21:58:48.611Z,4.30
2023-12-05T22:01:20.338Z,4.30
2023-12-05T22:03:49.478Z,4.30
2023-12-05T22:06:19.209Z,4.30
2023-12-05T22:08:46.475Z,4.30
2023-12-05T22:11:15.168Z,4.30
2023-12-05T22:13:45.988Z,4.30
2023-12-05T22:16:14.340Z,4.30
2023-12-05T22:18:44.062Z,4.30
2023-12-05T22:21:12.542Z,4.30
2023-12-05T22:23:42.359Z,4.30
2023-12-05T22:26:12.246Z,4.30
2023-12-05T22:28:40.531Z,4.30
2023-12-05T22:31:12.089Z,4.30
2023-12-05T22:33:41.091Z,4.40
2023-12-05T22:36:21.090Z,4.40
2023-12-05T22:38:51.257Z,4.30
2023-12-05T22:41:19.456Z,4.30
2023-12-05T22:43:49.659Z,4.40
2023-12-05T22:46:18.485Z,4.40
2023-12-05T22:48:47.036Z,4.40
2023-12-05T22:51:15.738Z,4.40
2023-12-05T22:53:43.960Z,4.40
2023-12-05T22:56:13.903Z,4.40
2023-12-05T22:58:42.683Z,4.40
2023-12-05T23:01:10.967Z,4.40
2023-12-05T23:03:40.586Z,4.40
2023-12-05T23:06:09.535Z,4.40
2023-12-05T23:08:40.783Z,4.40
2023-12-05T23:11:08.912Z,4.40
2023-12-05T23:13:38.719Z,4.40
2023-12-05T23:16:12.292Z,4.50
2023-12-05T23:18:40.730Z,4.40
2023-12-05T23:21:09.119Z,4.50
2023-12-05T23:23:37.314Z,4.50
2023-12-05T23:26:05.823Z,4.50
2023-12-05T23:28:35.121Z,4.50
2023-12-05T23:31:05.152Z,4.50
2023-12-05T23:33:34.024Z,4.50
2023-12-05T23:36:02.736Z,4.50
2023-12-05T23:38:30.962Z,4.60
2023-12-05T23:40:59.368Z,4.60
2023-12-05T23:43:27.824Z,4.60
2023-12-05T23:45:56.087Z,4.60
2023-12-05T23:48:25.709Z,4.60
2023-12-05T23:50:54.539Z,4.60
2023-12-05T23:53:22.854Z,4.60
2023-12-05T23:55:51.588Z,4.60
2023-12-05T23:58:20.068Z,4.60
